KLRY

Details ICAO KLRY
Name LAWRENCE SMITH MEM
Region United States
Timezone America/Chicago (UTC-6.0)
Plans Departing 1
Arriving 1
Stats Elevation 915 ft / 279 m (AMSL)
Location 38.610202° -94.343528°
Runways 1
Magnetic Variation 1.515° E
Sunrise 2017-12-18 13:31:24 UTC / 2017-12-18 07:31:24 Local
Sunset 2017-12-18 22:59:32 UTC / 2017-12-18 16:59:32 Local
Advertisement - Login to hide

Runways

ID Width Length Bearing (true) Bearing (mag) Surface Threshold Offset Overrun Length
17 75 ft / 23 m 4,008 ft / 1,222 m 177.17° 175.65° Asphalt 0 ft / 0 m 0 ft / 0 m
35 75 ft / 23 m 4,008 ft / 1,222 m 357.17° 355.65° Asphalt 0 ft / 0 m 0 ft / 0 m

Map

Weather


0- 5 10 15 20 25 30 35+ Temperature / ° C

Clouds and Precipitation
Forecast for 2017-12-18 12:00 UTC. Updated 2 hours ago

Ground ~20,000 ft ~40,000 ft Winds

METAR

KLRY 181235Z AUTO 00000KT 10SM BKN016 07/05 A3009 RMK AO2

TAF

Not found

Frequencies

Recorded 119.97 MHz AWOS 3
Approach 125.55 MHz KANSAS CITY CNTR
Unicom 123.00 MHz CTAF/UNICOM
Warning: Do not use this data for real-world aviation or navigation. No guarantee of current accuracy is given.